Jiuzhai Huanglong Airport


Codes: ZUJZ/JZH
Name: Jiuzhai Huanglong Airport
City: Jiuzhaigou
Country: China
Elevation: 11327 ft.
Wikipedia:

Photos at Jiuzhai Huanglong Airport


   Photos courtesy of SpottingLog. You can add your own sightings and photos by signing up for a free trial today.



No photos found.

Weather at Jiuzhai Huanglong Airport


Time (UTC)DescriptionTempratureWindCloud coverageVisibilityPressureHumidity
19-Apr-2024 06:00Few Clouds8°C4 mph, SE19%10000m1009hPa48%
19-Apr-2024 09:00Light Rain10°C9 mph, E36%10000m1005hPa50%
19-Apr-2024 12:00Light Rain5°C7 mph, E72%2964m1009hPa88%
19-Apr-2024 15:00Light Snow4°C7 mph, E100%356m1011hPa96%
19-Apr-2024 18:00Light Snow3°C4 mph, E100%145m1011hPa97%
19-Apr-2024 21:00Light Snow2°C7 mph, E100%291m1010hPa93%
20-Apr-2024 00:00Light Snow2°C4 mph, E100%340m1012hPa88%
20-Apr-2024 03:00Light Snow4°C7 mph, E100%3549m1011hPa75%
20-Apr-2024 06:00Light Rain6°C7 mph, E100%2502m1008hPa76%
20-Apr-2024 09:00Light Rain5°C7 mph, E100%3777m1007hPa80%
20-Apr-2024 12:00Light Snow3°C4 mph, N100%0m1011hPa92%
20-Apr-2024 15:00Light Snow2°C4 mph, E100%197m1014hPa96%
20-Apr-2024 18:00Light Snow1°C4 mph, E100%637m1013hPa94%
20-Apr-2024 21:00Light Snow1°C2 mph, N100%0m1012hPa96%
21-Apr-2024 00:00Light Snow2°C2 mph, SE100%186m1013hPa91%
21-Apr-2024 03:00Light Snow4°C2 mph, E100%1436m1013hPa90%
21-Apr-2024 06:00Light Rain5°C7 mph, E100%1067m1010hPa91%
21-Apr-2024 09:00Snow4°C4 mph, N100%0m1010hPa94%
21-Apr-2024 12:00Snow3°C7 mph, NE100%435m1013hPa99%
21-Apr-2024 15:00Snow2°C4 mph, NE100%847m1017hPa98%
21-Apr-2024 18:00Light Snow1°C4 mph, N100%0m1017hPa98%
21-Apr-2024 21:00Light Snow-1°C2 mph, NE100%10000m1018hPa98%
22-Apr-2024 00:00Overcast Clouds0°C2 mph, W88%10000m1018hPa97%
22-Apr-2024 03:00Broken Clouds3°C4 mph, W72%10000m1017hPa89%
22-Apr-2024 06:00Broken Clouds6°C4 mph, W80%10000m1013hPa67%
22-Apr-2024 09:00Scattered Clouds8°C4 mph, NW44%10000m1009hPa51%
22-Apr-2024 12:00Light Snow3°C7 mph, NE55%10000m1013hPa78%
22-Apr-2024 15:00Light Snow2°C4 mph, E95%6603m1017hPa91%
22-Apr-2024 18:00Light Snow2°C4 mph, E97%3779m1016hPa93%
22-Apr-2024 21:00Snow2°C7 mph, NE100%188m1014hPa97%
23-Apr-2024 00:00Snow1°C4 mph, E100%237m1016hPa96%
23-Apr-2024 03:00Snow3°C4 mph, SE100%192m1016hPa98%
23-Apr-2024 06:00Snow4°C4 mph, SE100%2290m1012hPa91%
23-Apr-2024 09:00Light Snow4°C4 mph, E100%509m1011hPa92%
23-Apr-2024 12:00Light Snow2°C2 mph, E100%275m1013hPa98%
23-Apr-2024 15:00Light Snow2°C2 mph, E100%191m1015hPa99%
23-Apr-2024 18:00Light Snow2°C2 mph, NE100%699m1014hPa98%
23-Apr-2024 21:00Light Snow2°C2 mph, N100%0m1012hPa99%
24-Apr-2024 00:00Light Snow2°C2 mph, N100%0m1013hPa99%
24-Apr-2024 03:00Light Snow4°C4 mph, W100%3142m1013hPa94%